METAR

METAR RPLL (MNL) – NINOY AQUINO INTERNATIONAL AIRPORT (MANILA INTERNATIONAL AIRPORT)
RPLL 111400Z 12007KT 070V190 9999 FEW025 28/22 Q1014 RMK A2994
RPLL 111300Z 12006KT 090V180 9999 FEW025 28/21 Q1014 NOSIG RMK A2994
RPLL 111200Z 11008KT 080V140 9999 FEW030 29/20 Q1013 NOSIG RMK A2991
RPLL 111100Z 09006KT 070V130 9999 FEW030 30/18 Q1012 NOSIG RMK A2988
RPLL 111000Z 09009KT 9999 FEW025 31/18 Q1011 NOSIG RMK A2985
RPLL 110900Z 08009KT 9999 FEW025 32/17 Q1011 NOSIG RMK A2985
RPLL 110800Z 13009G20KT 090V190 9999 FEW025 SCT100 33/21 Q1011 NOSIG RMK A2985
RPLL 110700Z 13008KT 070V200 9999 FEW025 34/21 Q1011 NOSIG RMK A2985
RPLL 110600Z 12008KT 080V180 9999 FEW025 33/20 Q1012 NOSIG RMK A2988
RPLL 110500Z 14008KT 080V200 9999 FEW025 34/20 Q1013 NOSIG RMK A2991
RPLL 110400Z 01004KT 270V070 9999 SCT025 32/20 Q1014 NOSIG RMK A2994
RPLL 110300Z 12004KT 040V210 9999 SCT023 32/22 Q1014 NOSIG RMK A2994
RPLL 110100Z 12006KT 080V250 9999 SCT023 SCT100 29/21 Q1015 NOSIG RMK A2997
RPLL 110000Z 06005KT 030V090 9999 FEW023 29/21 Q1015 NOSIG RMK A2997
RPLL 102300Z 09004KT 060V130 9999 SCT023 27/21 Q1014 NOSIG RMK A2994
RPLL 102200Z VRB02KT 9999 SCT023 SCT100 26/22 Q1014 NOSIG RMK A2994
RPLL 102100Z 08003KT 060V120 9999 FEW023 SCT100 25/22 Q1013 NOSIG RMK A2991
RPLL 102000Z 07003KT 9999 FEW023 26/21 Q1013 NOSIG RMK A2991
RPLL 101900Z VRB02KT 9999 FEW023 27/21 Q1013 NOSIG RMK A2991
RPLL 101800Z 12003KT 090V170 9999 FEW030 27/22 Q1013 NOSIG RMK A2991
RPLL 101700Z 12005KT 070V160 9999 FEW030 27/22 Q1014 NOSIG RMK A2994
RPLL 101600Z 12006KT 060V160 9999 FEW030 27/22 Q1014 NOSIG RMK A2994
RPLL 101500Z 12008KT 080V190 9999 FEW030 27/22 Q1014 NOSIG RMK A2994
RPLL 101400Z 12007KT 070V160 9999 FEW030 28/22 Q1014 NOSIG RMK A2994
RPLL 101300Z 11007KT 080V160 FEW030 28/22 Q1013 NOSIG RMK A2991
RPLL 101200Z 12007KT 080V160 9999 FEW030 29/20 Q1013 NOSIG RMK A2991
RPLL 101000Z 08009KT 9999 FEW030 31/19 Q1011 NOSIG RMK A2985
RPLL 100900Z 09010KT 060V120 9999 FEW025 32/19 Q1011 NOSIG RMK A2985
RPLL 100700Z VRB06KT 9999 FEW025 SCT100 34/20 Q1010 NOSIG RMK A2983
RPLL 100600Z 11008KT 070V150 9999 SCT023 33/21 Q1011 RMK A2985
RPLL 100500Z 08010KT 040V160 9999 FEW025 SCT100 33/20 Q1012 NOSIG RMK A2988
RPLL 100400Z 10009KT 070V150 9999 SCT025 SCT100 32/20 Q1013 NOSIG RMK A2991
RPLL 100300Z 09009KT 070V160 9999 SCT023 SCT100 32/21 Q1014 NOSIG RMK A2994
RPLL 100100Z 04011KT 9999 FEW025 31/21 Q1014 NOSIG RMK A2994

RPVM (CEB) – MACTAN-CEBU INTERNATIONAL AIRPORT
RPVM 111400Z 33004KT 9999 SCT020 OVC100 28/23 Q1014 RMK A2994
RPVM 111300Z 33006KT 9999 SCT020 OVC100 28/22 Q1013 RMK A2991
RPVM 111200Z 34005KT 9999 FEW020 SCT100 28/21 Q1013 RMK A2991
RPVM 111100Z 34006KT 9999 FEW020 SCT100 29/23 Q1012 RMK A2988
RPVM 111000Z 03009KT 9999 FEW020 SCT100 29/24 Q1011 RMK A2985
RPVM 110900Z 04009KT 9999 FEW020 BKN100 30/23 Q1010 RMK A2983
RPVM 110800Z 05008KT 9999 FEW020 BKN100 30/23 Q1010 RMK A2983
RPVM 110700Z 04009KT 020V080 9999 FEW020 BKN100 30/23 Q1011 RMK A2985
RPVM 110600Z 05010KT 9999 FEW020 SCT100 BKN250 30/23 Q1011 RMK A2985
RPVM 110500Z 05010KT 9999 FEW020 BKN300 31/23 Q1012 RMK A2988
RPVM 110400Z 05009KT 9999 FEW020 SCT300 31/23 Q1013 RMK A2991
RPVM 110300Z 04010KT 9999 FEW020 SCT300 31/23 Q1014 RMK A2994
RPVM 110100Z 04007KT 9999 FEW020 BKN250 30/24 Q1014 RMK A2994 u0000u0000u0000u0000u0000u0000u0000
RPVM 110000Z 02006KT 9999 FEW020 SCT100 BKN250 28/23 Q1014 RMK A2994
RPVM 102300Z VRB01KT 9999 FEW020 BKN100 BKN250 27/24 Q1014 RMK A2994
RPVM 102200Z 23003KT 9999 FEW020 OVC250 26/24 Q1013 RMK A2991
RPVM 102100Z 25004KT 9999 FEW020 OVC250 26/24 Q1013 RMK A2991
RPVM 102000Z 09003KT 060V120 9999 FEW020 OVC250 26/24 Q1012 RMK A2988
RPVM 101900Z 05006KT 9999 FEW018CB OVC100 27/24 Q1013 RMK A2991 CB N SE-S
RPVM 101800Z 10004KT 060V130 9999 FEW018CB OVC100 26/23 Q1013 RMK A2991 CB
RPVM 101700Z 07008KT 9999 FEW018CB OVC100 26/24 Q1013 RMK A2991 CB NE/SE-S
RPVM 101600Z 05014KT 9999 FEW018CB OVC100 28/24 Q1014 RMK A2994 CB NE-E
RPVM 101500Z 34007KT 9999 FEW018CB OVC100 28/22 Q1014 RMK A2994 CB NE/E
RPVM 101400Z 36005KT 9999 FEW020 BKN100 28/23 Q1014 RMK A2994
RPVM 101300Z 35004KT 9999 FEW020 SCT100 28/22 Q1013 RMK A2991
RPVM 101000Z 01006KT 9999 FEW020 OVC100 30/22 Q1011 RMK A2985
RPVM 100900Z 03010KT 9999 FEW020 BKN100 30/24 Q1010 RMK A2983
RPVM 100700Z 03012KT 9999 FEW018CB SCT300 30/23 Q1009 RMK A2980 CB WNW
RPVM 100600Z 04010KT 9999 FEW018CB SCT300 31/23 Q1010 RMK A2983 CB S
RPVM 100500Z 05009KT 9999 FEW018CB BKN300 31/23 Q1011 RMK A2985 CB SW-W
RPVM 100400Z 06008KT 9999 FEW020 31/24 Q1012 RMK A2988
RPVM 100300Z 05009KT 9999 FEW020 30/25 Q1013 RMK A2991
RPVM 100100Z 03004KT 9999 FEW020 SCT100 29/24 Q1013 RMK A2991

RPLC (CRK) – CLARK INTERNATIONAL AIRPORT
RPLC 111400Z 20003KT 9999 FEW020 BKN100 27/19 Q1015 NOSIG RMK A2997
RPLC 111100Z 18006KT 9999 FEW020 SCT300 29/19 Q1013 NOSIG RMK A2991
RPLC 111000Z 14008KT 9999 FEW020 BKN300 31/19 Q1012 N0SIG RMK A2988
RPLC 110900Z 14010KT 9999 FEW020 SCT300 34/19 Q1011 NOSIG RMK A2985
RPLC 110800Z 18004KT 9999 FEW020 BKN300 35/18 Q1011 NOSIG RMK A2985
RPLC 110700Z 04008KT 9999 FEW020 BKN300 35/18 Q1012 NOSIG RMK A2988
RPLC 110600Z 02008KT 9999 FEW020 BKN300 35/17 Q1012 NOSIG RMK A2988
RPLC 110500Z 02010KT 9999 FEW020 BKN300 35/16 Q1013 NOSIG RMK A2991
RPLC 110400Z 04012KT 9999 FEW020 BKN300 34/17 Q1015 NOSIG RMK A2997
RPLC 110300Z 02012KT 9000 SCT020 BKN300 32/18 Q1015 NOSIG RMK A2997
RPLC 110000Z 36006KT 8000 FEW020 BKN300 28/21 Q1016 NOSIG RMK A3000
RPLC 102300Z 34002KT 8000 FEW020 BKN300 26/21 Q1015 NOSIG RMK A2997
RPLC 102200Z 27002KT 9999 FEW020 BKN300 24/20 Q1014 NOSIG RMK A2994
RPLC 102100Z 27002KT 9999 FEW020 SCT300 24/20 Q1013 NOSIG RMK A2991
RPLC 101900Z 34002KT 9999 FEW020 BKN300 25/20 Q1014 NOSIG RMK A2994
RPLC 101400Z 16004KT 9999 SCT020 BKN300 27/20 Q1015 NOSIG RMK A2997
RPLC 100700Z 09008KT 8000 FEW018 SCT020 33/21 Q1011 NOSIG RMK A2985
RPLC 100600Z 04010KT 8000 BKN020 34/21 Q1012 NOSIG RMK A2988
RPLC 100400Z 08008KT 8000 BKN020 32/21 Q1014 NOSIG RMK A2994
RPLC 100300Z 02006KT 8000 SCT020 BKN300 31/21 Q1014 NOSIG RMKA2994
RPLC 100100Z 08008KT 6000 HZ SCT020 BKN300 31/22 Q1015 RMK A2997

RPLB (SFS) – SUBIC BAY INTERNATIONAL AIRPORT
RPLB 111400Z 07003KT 040V120 9999 FEW020 26/19 Q1015 NOSIG RMK A2997
RPLB 111300Z 05004KT 9999 FEW020 26/19 Q1014 NOSIG RMK A2994
RPLB 111200Z 04004KT 020V080 9999 FEW020 28/20 Q1013 NOSIG RK A2991
RPLB 111100Z 36006KT 310V030 9999 FEW020 29/22 Q1012 NOSIG RMK A2988
RPLB 111000Z 03006KT 300V080 9999 FEW020 31/21 Q1012 NOSIG RMK A2988
RPLB 110900Z 08011KT 9999 FEW020 33/17 Q1011 NOSIG RMK A2985
RPLB 110800Z 07012KT 040V100 9999 FEW020 34/17 Q1011 NOSIG RMK A2985
RPLB 110700Z 08014G26KT 040V110 9999 FEW020 35/16 Q1011 NOSIG RMK A2985
RPLB 110600Z 08015KT 040V110 9999 FEW020 35/11 Q1012 NOSIG RMK A2988
RPLB 110500Z 07011G21KT 030V120 9999 FEW020 34/18 Q1013 NOSIG RMK A2991
RPLB 110400Z 08015KT 040V110 9999 FEW020 34/17 Q1014 NOSIG RMK A2994
RPLB 110300Z 07013KT 030V100 9999 FEW020 33/18 Q1015 NOSIG RMK A2997
RPLB 110100Z 06012KT 030V090 9999 FEW020 31/19 Q1015 NOSIG RMK A2997
RPLB 110000Z 04006KT 020V080 9999 FEW020 28/21 Q1015 NOSIG RMK A2997
RPLB 102300Z 06004KT 9999 FEW020 25/21 Q1015 NOSIG RMK A2997
RPLB 102200Z 07002KT 9999 FEW020 23/20 Q1014 NOSIG RMK A2994
RPLB 102100Z 05004KT 9999 FEW020 23/21 Q1013 NOSIG RMK A2991
RPLB 101900Z 05003KT 9999 FEW020 24/21 Q1013 NOSIG RMK A2991
RPLB 101800Z 03004KT 010V070 9999 FEW020 25/21 Q1014 NOSIG RMK A2994
RPLB 101700Z 07005KT 9999 FEW020 24/20 Q1014 NOSIG RMK A2994
RPLB 101500Z 07003KT 9999 FEW020 26/20 Q1015 NOSIG RMK A2997
RPLB 101400Z 05004KT 9999 FEW020 26/20 Q1015 NOSIG RMK A2997
RPLB 101300Z 05005KT 9999 FEW020 28/20 Q1014 NOSIG RMK A2994
RPLB 101000Z 04005KT 340V070 9999 SCT020 31/18 Q1011 NOSIG RMK A2985
RPLB 100900Z 05009KT 360V080 9999 SCT020 32/19 Q1011 NOSIG RMK A2985
RPLB 100700Z 07012KT 040V100 9999 FEW020 34/19 Q1011 NOSIG RMK A2985
RPLB 100600Z 08013KT 040V100 9999 FEW020 34/19 Q1011 NOSIG RMK A2985
RPLB 100500Z 08014KT 050V110 9999 FEW020 34/20 Q1013 NOSIG RMK A2988
RPLB 100400Z 08015KT 040V110 9999 FEW020 33/20 Q1013 NOSIG RMK A2991
RPLB 100300Z 09017KT 050V110 9999 FEW020 32/20 Q1014 NOSIG RMK A2994
RPLB 100100Z 05009KT 020V080 9999 FEW020 30/21 Q1014 NOSIG RMK A2994

RPLI (LAO) – LAOAG INTERNATIONAL AIRPORT
RPLI 111200Z 04003KT 9999 FEW018 29/21 Q1012 NOSIG RMK A2988
RPLI 111100Z 13004KT 100V160 9999 FEW018 31/19 Q1011 NOSIG RMK A2985
RPLI 111000Z 11006KT 070V150 9999 FEW018 33/19 Q1011 NOSIG RMK A2985
RPLI 110900Z VRB02KT 9999 FEW018 34/21 Q1010 NOSIG RMK A2983
RPLI 110800Z 31005KT 210V340 9999 FEW018 33/23 Q1010 NOSIG RMK A2983
RPLI 110700Z 35007KT 310V020 9999 FEW018 33/23 Q1011 NOSIG RMK A2985
RPLI 110600Z 34010KT 300V010 9999 FEW018 32/24 Q1012 NOSIG RMK A2988
RPLI 110500Z 35010KT 320V020 9999 FEW018 32/22 Q1013 RMK A2991
RPLI 110400Z 33010KT 300V360 9999 FEW018 SCT290 31/20 Q1014 NOSIG RMK A2994
RPLI 110300Z 33008KT 300V010 9999 FEW018 31/20 Q1015 NOSIG RMK A2997
RPLI 110100Z VRB03KT 8000 FEW018 31/19 Q1015 NOSIG RMK A2997
RPLI 110000Z 11003KT 070V180 8000 FEW018 29/18 Q1015 NOSIG RMK A2997
RPLI 102300Z VRB01KT 8000 FEW018 26/20 Q1014 NOSIG RMK A2994
RPLI 102200Z VRB01KT 8000 FEW018 22/19 Q1013 NOSIG RMK A2991
RPLI 102100Z VRB02KT 9999 FEW018 23/20 Q1013 NOSIG RMK A2991
RPLI 101800Z VRB01KT 9999 FEW018 23/20 Q1013 NOSIG RMK A2991
RPLI 101500Z VRB02KT 9999 FEW018 26/20 Q1014 NOSIG RMK A2994
RPLI 101000Z 04003KT 010V080 9999 FEW019 31/22 Q1011 NOSIG RMK A2985
RPLI 100900Z 36007KT 9999 FEW018 31/23 Q1010 NOSIG RMK A2983
RPLI 100700Z 34008KT 320V020 9999 FEW018 31/22 Q1010 NOSIG RMK A2983
RPLI 100600Z 35009KT 310V020 9999 FEW018 31/23 Q1011 NOSIG RMK A2985
RPLI 100500Z 35009KT 9999 FEW018 32/23 Q1012 NOSIG RMK A2988
RPLI 100400Z 34011KT 9999 FEW018 31/22 Q1012 NOSIG RMK A2988
RPLI 100300Z 34011KT 9999 FEW018 30/21 Q1013 NOSIG RMK A2991
RPLI 100100Z 13005KT 070V180 8000 FEW018 31/19 Q1014 NOSIG RMK A2994

RPVP (PPS) – PUERTO PRINCESA INTERNATIONAL AIRPORT
RPVP 111100Z 03006KT 9999 FEW017CB SCT019 OVC080 28/24 Q1012 RMK A2985 CB SSE-E W/ OCNL TS LTG
RPVP 111000Z 22004KT 9999 FEW017CB SCT080 29/24 Q1012 RMK A2985 CB NW-NNW
RPVP 110900Z 18004KT 9999 FEW017CB BKN080 30/24 Q1011 RMK A2985 CB WNW NNW
RPVP 110800Z 12004KT 9999 FEW017CB BKN080 31/24 Q1011 RMK A2985 CB NW
RPVP 110700Z 12010KT 9999 FEW019 BKN080 30/24 Q1011 RMK A2985
RPVP 110600Z 07010KT 9999 FEW019 BKN080 32/24 Q1012 RMK A2988
RPVP 110500Z 07012KT 9999 FEW019 SCT080 32/25 Q1012 RMK A2988
RPVP 110400Z 07014KT 9999 FEW019 SCT080 32/25 Q1013 RMK A2991
RPVP 110300Z 07014KT 9999 FEW019 SCT250 32/25 Q1013 RMK A2991
RPVP 110000Z 07012KT 9999 FEW017CB SCT019 29/25 Q1013 RMK A2991 CB WSW/SE/ESE
RPVP 102300Z 09010KT 9999 FEW019 SCT250 28/25 Q1012 RMK A2988
RPVP 102200Z 04002KT 9999 SCT019 SCT080 25/24 Q1012 RESHRA RMK A2988
RPVP 102100Z 21004KT 8000 -SHRA SCT029 OVC080 25/24 Q1011 RMK A2985
RPVP 100700Z 22004KT 9999 SCT019 BKN080 28/25 Q1010 RMK A2983
RPVP 100600Z 09006KT 9999 -SHRA SCT019 OVC080 27/25 Q1010 RMK A2983
RPVP 100400Z 12012KT 9999 FEW019TCU BKN080 32/24 Q1012 RMK A2988 TCU WNW-NW
RPVP 100300Z 09012KT 9999 FEW019TCU SCT080 32/25 Q1012 RMK A2988 TCU W NW ESE

RPVD (DGT) – SIBULAN AIRPORT (DUMAGUETE AIRPORT)
RPVD 110900Z 04006KT 9999 VCSH FEW014CB FEW015 31/24 Q1010 RMK A2983 CB VCSH SSW-WSW WNW NW
RPVD 110800Z 02006KT 9999 FEW014CB FEW015 31/25 Q1009 RMK A2980 CB SW WNW NW
RPVD 110700Z 32006KT 9999 VCSH FEW014CB FEW015 SCT070 31/25 Q1010 RMK A2983 CB SW NW VCSH NE
RPVD 110600Z 34006KT 9999 FEW015TCU SCT220 31/25 Q1010 RMK A2983 TCU SW
RPVD 110500Z 02008KT 9999 FEW015 SCT220 31/25 Q1011 RMK A2985
RPVD 110400Z 04008KT 9999 FEW015 SCT220 31/25 Q1012 RMK A2988
RPVD 110300Z 32008KT 9999 FEW015 SCT220 30/25 Q1013 RMK A2991
RPVD 110000Z 04004KT 9000 -SHRA SCT015 BKN070 27/25 Q1013 RMK A2991
RPVD 102100Z 32004KT 9999 -SHRA FEW014CB SCT015 BKN070 27/24 Q1012 RMK A2988 CB/OCNL LTG S
RPVD 100600Z 32008KT 9999 FEW014CB FEW015 31/25 Q1009 RMK A2980 CB NW
RPVD 100400Z 07006KT 9999 FEW015TCU 31/25 Q1011 RMK A2985 TCU WNW
RPVD 100300Z 02008KT 99999 FEW01 5CTCU31/25 Q1012 RMK A2988 TCU

RPMR (GES) – GENERAL SANTOS INTERNATIONAL AIRPORT
RPMR 110900Z 28008KT 9999 VCSH SCT018 BKN00 25/23 Q1010 RMK A2984 VCSH NW
RPMR 110800Z 23007KT 8000 +RA SCT018 BKN080 25/23 Q1010 RMK A2983
RPMR 110700Z VRB02KT 9999 FEW018CB BKN080 32/23 Q1009 RMK A2980 CB NW
RPMR 110600Z 15009KT 120V180 9999 FEW018 BKN080 31/24 Q1010 RMK A2983
RPMR 110500Z 14010KT 9999 FEW018 BKN080 31/22 Q1011 RMK A2985
RPMR 110400Z 15010KT 120V080 999 FEW018 BKN080 31/23 Q1011 RMK A2988
RPMR 110300Z 03006KT 310V080 9999 FEW018 31/22 Q1012 RMK A2988
RPMR 110000Z 04008KT 9999 FEW018 BKN080 27/23 Q1013 RMK A2991
RPMR 100700Z 27003KT 210V350 9999 VCSH SCT018CB BKN080 27/25 Q1009 RMK A2980 VCSH NW CB NW E
RPMR 100600Z 11008KT 5000 +RA SCT018 BKN080 26/24 Q1010 RMK A2983
RPMR 100400Z 12011KT 9999 FEW018 32/23 Q1011 RMK A2985
RPMR 100300Z 05005KT 010V090 9999 FEW018 32/23 Q1011 RMK A2988

RPMD (DVO) – FRANCISCO BANGOY INTERNATIONAL AIRPORT
RPMD 111400Z 33005KT 300V360 9999 FEW015CB FEW016 BKN090 BKN260 25/23 Q1014 RMK A2994 OCNL LTG S
RPMD 111300Z 35005KT 330V030 9999 FEW016 BKN090 OVC260 26/22 Q1013 RMK A2991
RPMD 111200Z 03008KT 350V050 9999 FEW015CB FEW016 BKN090 BKN260 26/22 Q1012 RMK A2988 OCNL LTG SE-S
RPMD 111100Z VRB02KT 9999 FEW015CB FEW016 BKN090 OVC260 29/24 Q1011 RMK A2985 OCNL LTG SW
RPMD 110900Z 33004KT 270V060 9999 FEW015CB BKN090 BKN290 29/24 Q1010 RMK A2983 CB NNW ENE S
RPMD 110800Z 35006KT 3230V040 9999 FEW015CB BKN090 BKN290 30/23 Q1009 RMK A2980 CB NNW NE S SW
RPMD 110700Z 36006KT 310V050 9999 FEW015CB BKN090 BKN290 32/23 Q1009 RMK A2980 CB E S WSW
RPMD 110600Z 36007KT 310V050 9999 FEW015CB BKN090 BKN290 31/23 Q1010 RMK A2983 CB ENE AND SW
RPMD 110500Z 26007KT 300V050 9999 FEW016 BKN090 BKN290 31/24 Q1011 RMK A2985
RPMD 110400Z 01006KT 330V050 9999 FEW016 BKN090 BKN290 30/24 Q1011 RMK A2985
RPMD 110300Z 01007KT 320V040 9999 FEW016 BKN090 BKN290 29/23 Q1012 RMK A2988
RPMD 110100Z 01008KT 330V050 9999 FEW016 BKN090 27/24 Q1013 RMK A2991 u0000u0000u0000u0000u0000u0000u0000u0000u0000u0000u0000u0000
RPMD 110000Z 35007KT 310V030 9999 FEW016 BKN090 BKN260 25/25 Q1014 RERA RMK A2994
RPMD 102300Z 36005KT 330V040 9000 -RA SCT016 BKN090 OVC260 24/24 Q1013 RMK A2991
RPMD 102200Z 36003KT 310V120 9999 FEW016 BKN090 OVC260 24/24 Q1013 RMK A2991
RPMD 102100Z 36003KT 340V040 9999 FEW016 BKN090 OVC260 24/24 Q1012 RERA RMK A2988
RPMD 101900Z 33003KT 7000 -RA SCT015 OVC080 24/24 Q1013 RMK A2991
RPMD 101800Z 03004KT 350V050 7000 -RA SCT015 OVC080 24/24 Q1013 RM
RPMD 101700Z 02006KT 7000 -RA SCT015 OVC080 24/24 Q1014 RMK A2994
RPMD 101300Z 21005KT 9999 TS SCT015CB BKN090 OVC260 25/25 Q1013 RMK A2991
RPMD 101000Z 26012G25KT 9999 -TS VCSH SCT015 BKN090 OVC260 27/26 Q1010 RMK A2983 CB SE S-SW TS SW
RPMD 100900Z 21007KT 9000 -SHRA FEW015CB BKN090 BKN260 30/25 Q1009 RMK A2980 CB WNW-NW N SE SW
RPMD 100700Z 03005KT 330V080 9999 SCT015CB BKN260 34/23 Q1008 RMK A2977 CB W-NNW E S
RPMD 100600Z 03007KT 350V070 9999 FEW015CB SCT290 33/24 Q1008 RMK A2977 CB W-NW E
RPMD 100500Z 04009KT 9999 FEW015CB 33/23 Q1009 RMK A2980 CB W-NW E
RPMD 100400Z 04008KT 010V070 9999 FEW015CB 33/24 Q1010 RMK A2983 CB W
RPMD 100300Z 01007KT 300V040 9999 FEW016 SCT290 31/24 Q1011 RMK A2985

RPMZ (ZAM) – ZAMBOANGA INTERNATIONAL AIRPORT
RPMZ 111200Z VRB02KT 9999 FEW017 SCT090 27/25 Q1012 RMK A2988
RPMZ 111000Z 27006KT 9999 FEW017 BKN090 28/25 Q1011 RMK A2985
RPMZ 110900Z 25006KT 180V300 9999 FEW017 29/25 Q1010 RMK A2983
RPMZ 110800Z 23005KT 160V280 9999 FEW017 SCT090 30/25 Q1010 RMK A2983
RPMZ 110700Z 23004KT 180V270 9999 FEW016CB FEW017 BKN090 29/25 Q1010 RESHRA RMK A2983 CB N-NE
RPMZ 110600Z 25005KT 200V290 9999 -SHRA FEW016CB FEW017 BKN090 29/25 Q1011 RMK A2985 CB N-E SE-S OHD
RPMZ 110500Z 27005KT 230V310 9999 FW016CB FEW017 BKN090 29/25 Q1012 RESHRA RMK A2988 CB N-NE SE-S OHD
RPMZ 110400Z VRB02KT 9999 -SHRA SCT016CB FEW017 BKN090 28/25 Q1013 RMK A2991 CB NW-S OHD
RPMZ 110300Z 32006KT 290V010 9999 -SHRA SCT016CB FEW017 BKN090 27/24 Q1013 RMK A2991 CB W-NE E-S OHD
RPMZ 110100Z 08009KT 040V110 9999 SCT016CB SCT300 30/25 Q1013 RMK A2991 CB ALQDS
RPMZ 110000Z 06005KT 9999 FEW017 BKN080 29/24 Q1012 RMK A2988
RPMZ 102300Z 06004KT 9999 FEW016CB FEW017 BKN080 27/23 Q1012 RMK A2988 CB NE
RPMZ 102200Z 06005KT 9999 FEW017 SCT090 25/23 Q1011 RMK A2985
RPMZ 102100Z 07005KT 9999 FEW017 BKN090 26/23 Q1011 RMK A2985
RPMZ 101800Z 06003KT 9999 FEW017 BKN090 25/23 Q1012 RMK A2988
RPMZ 101500Z VRB02KT 9999 SCT017 OVC090 25/24 Q1013 RMK A2991
RPMZ 101000Z VBR02KT 9999 SCT017 BKN090 27/25 Q1011 RMK A2985
RPMZ 100900Z VBR02KT 9999 SCT017 BKN090 27/25 Q1011 RMK A2985
RPMZ 100700Z 06003KT 030V090 9000 -RA FEW016CB FEW017 OVC080 27/25 Q1010 RESHRA RMK A2983 CB SE-SW
RPMZ 100600Z 16003KT 120V200 9000 -SHRA FEW016CB FEW017 OVC090 27/24 Q1011 RMK A2985 CB SE-SW NW
RPMZ 100500Z 23006KT 180V280 9999 FEW016CB FEW017 BKN090 27/24 Q1011 RETS RMK A2985 CB SW NW SE
RPMZ 100400Z 22005KT 180V270 9999 TS FEW016CB FEW017 OVC090 29/25 Q1012 RMK A2988 CB NW N SW
RPMZ 100300Z 17004KT 100V250 9999 FEW016CB FEW017 BKN090 29/24 Q1012 RMK A2988 CB NW N
RPMZ 100100Z VRB01KT 9999 FEW016CB FEW017 SCT090 29/24 Q1012 RMK A2988 CB N